sensor_id;sensor_type;location;lat;lon;timestamp;temperature;humidity
20891;DHT22;10605;52.968;8.844;2023-05-02T00:02:00;11.70;99.90
20891;DHT22;10605;52.968;8.844;2023-05-02T00:04:26;11.80;99.90
20891;DHT22;10605;52.968;8.844;2023-05-02T00:06:52;11.80;99.90
20891;DHT22;10605;52.968;8.844;2023-05-02T00:09:18;11.80;99.90
20891;DHT22;10605;52.968;8.844;2023-05-02T00:11:43;11.90;99.90
20891;DHT22;10605;52.968;8.844;2023-05-02T00:14:09;11.90;99.90
20891;DHT22;10605;52.968;8.844;2023-05-02T00:16:35;11.90;99.90
20891;DHT22;10605;52.968;8.844;2023-05-02T00:19:01;11.90;99.90
20891;DHT22;10605;52.968;8.844;2023-05-02T00:21:26;11.80;99.90
20891;DHT22;10605;52.968;8.844;2023-05-02T00:23:56;11.80;99.90
20891;DHT22;10605;52.968;8.844;2023-05-02T00:26:22;11.90;99.90
20891;DHT22;10605;52.968;8.844;2023-05-02T00:28:49;11.80;99.90
20891;DHT22;10605;52.968;8.844;2023-05-02T00:31:14;11.90;99.90
20891;DHT22;10605;52.968;8.844;2023-05-02T00:33:41;11.90;99.90
20891;DHT22;10605;52.968;8.844;2023-05-02T00:36:17;11.90;99.90
20891;DHT22;10605;52.968;8.844;2023-05-02T00:38:43;11.90;99.90
20891;DHT22;10605;52.968;8.844;2023-05-02T00:41:09;11.90;99.90
20891;DHT22;10605;52.968;8.844;2023-05-02T00:43:35;11.90;99.90
20891;DHT22;10605;52.968;8.844;2023-05-02T00:46:02;11.90;99.90
20891;DHT22;10605;52.968;8.844;2023-05-02T00:48:27;11.80;99.90
20891;DHT22;10605;52.968;8.844;2023-05-02T00:50:54;11.80;99.90
20891;DHT22;10605;52.968;8.844;2023-05-02T00:53:21;11.80;99.90
20891;DHT22;10605;52.968;8.844;2023-05-02T00:55:47;11.80;99.90
20891;DHT22;10605;52.968;8.844;2023-05-02T00:58:15;11.80;99.90
20891;DHT22;10605;52.968;8.844;2023-05-02T01:08:54;11.80;99.90
20891;DHT22;10605;52.968;8.844;2023-05-02T01:13:54;11.80;99.90
20891;DHT22;10605;52.968;8.844;2023-05-02T01:16:23;11.80;99.90
20891;DHT22;10605;52.968;8.844;2023-05-02T01:18:50;11.70;99.90
20891;DHT22;10605;52.968;8.844;2023-05-02T01:21:16;11.70;99.90
20891;DHT22;10605;52.968;8.844;2023-05-02T01:26:24;11.70;99.90
20891;DHT22;10605;52.968;8.844;2023-05-02T01:29:02;11.70;99.90
20891;DHT22;10605;52.968;8.844;2023-05-02T01:31:34;11.70;99.90
20891;DHT22;10605;52.968;8.844;2023-05-02T01:34:01;11.70;99.90
20891;DHT22;10605;52.968;8.844;2023-05-02T01:36:30;11.70;99.90
20891;DHT22;10605;52.968;8.844;2023-05-02T01:38:57;11.70;99.90
20891;DHT22;10605;52.968;8.844;2023-05-02T01:41:26;11.60;99.90
20891;DHT22;10605;52.968;8.844;2023-05-02T01:43:57;11.70;99.90
20891;DHT22;10605;52.968;8.844;2023-05-02T01:46:28;11.70;99.90
20891;DHT22;10605;52.968;8.844;2023-05-02T01:48:56;11.70;99.90
20891;DHT22;10605;52.968;8.844;2023-05-02T01:51:26;11.70;99.90
20891;DHT22;10605;52.968;8.844;2023-05-02T01:53:55;11.60;99.90
20891;DHT22;10605;52.968;8.844;2023-05-02T01:56:22;11.60;99.90
20891;DHT22;10605;52.968;8.844;2023-05-02T01:58:50;11.60;99.90
20891;DHT22;10605;52.968;8.844;2023-05-02T02:01:17;11.50;99.90
20891;DHT22;10605;52.968;8.844;2023-05-02T02:03:45;11.40;99.90
20891;DHT22;10605;52.968;8.844;2023-05-02T02:06:12;11.40;99.90
20891;DHT22;10605;52.968;8.844;2023-05-02T02:08:39;11.40;99.90
20891;DHT22;10605;52.968;8.844;2023-05-02T02:11:08;11.30;99.90
20891;DHT22;10605;52.968;8.844;2023-05-02T02:13:44;11.30;99.90
20891;DHT22;10605;52.968;8.844;2023-05-02T02:16:13;11.20;99.90
20891;DHT22;10605;52.968;8.844;2023-05-02T02:18:43;11.20;99.90
20891;DHT22;10605;52.968;8.844;2023-05-02T02:21:10;11.20;99.90
20891;DHT22;10605;52.968;8.844;2023-05-02T02:23:38;11.10;99.90
20891;DHT22;10605;52.968;8.844;2023-05-02T02:26:08;11.10;99.90
20891;DHT22;10605;52.968;8.844;2023-05-02T02:28:34;11.00;99.90
20891;DHT22;10605;52.968;8.844;2023-05-02T02:31:00;11.00;99.90
20891;DHT22;10605;52.968;8.844;2023-05-02T02:33:29;11.00;99.90
20891;DHT22;10605;52.968;8.844;2023-05-02T02:38:53;10.80;99.90
20891;DHT22;10605;52.968;8.844;2023-05-02T02:41:35;10.80;99.90
20891;DHT22;10605;52.968;8.844;2023-05-02T02:46:50;10.70;99.90
20891;DHT22;10605;52.968;8.844;2023-05-02T02:54:36;10.50;99.90
20891;DHT22;10605;52.968;8.844;2023-05-02T02:57:09;10.40;99.90
20891;DHT22;10605;52.968;8.844;2023-05-02T02:59:43;10.30;99.90
20891;DHT22;10605;52.968;8.844;2023-05-02T03:02:14;10.10;99.90
20891;DHT22;10605;52.968;8.844;2023-05-02T03:04:43;10.00;99.90
20891;DHT22;10605;52.968;8.844;2023-05-02T03:07:11;9.90;99.90
20891;DHT22;10605;52.968;8.844;2023-05-02T03:09:43;9.90;99.90
20891;DHT22;10605;52.968;8.844;2023-05-02T03:12:10;9.90;99.90
20891;DHT22;10605;52.968;8.844;2023-05-02T03:14:37;9.80;99.90
20891;DHT22;10605;52.968;8.844;2023-05-02T03:17:02;9.70;99.90
20891;DHT22;10605;52.968;8.844;2023-05-02T03:19:28;9.60;99.90
20891;DHT22;10605;52.968;8.844;2023-05-02T03:21:54;9.60;99.90
20891;DHT22;10605;52.968;8.844;2023-05-02T03:24:20;9.50;99.90
20891;DHT22;10605;52.968;8.844;2023-05-02T03:26:46;9.50;99.90
20891;DHT22;10605;52.968;8.844;2023-05-02T03:29:12;9.50;99.90
20891;DHT22;10605;52.968;8.844;2023-05-02T03:31:38;9.50;99.90
20891;DHT22;10605;52.968;8.844;2023-05-02T03:34:04;9.50;99.90
20891;DHT22;10605;52.968;8.844;2023-05-02T03:36:29;9.50;99.90
20891;DHT22;10605;52.968;8.844;2023-05-02T03:38:56;9.50;99.90
20891;DHT22;10605;52.968;8.844;2023-05-02T03:41:21;9.50;99.90
20891;DHT22;10605;52.968;8.844;2023-05-02T03:43:47;9.50;99.90
20891;DHT22;10605;52.968;8.844;2023-05-02T03:46:13;9.50;99.90
20891;DHT22;10605;52.968;8.844;2023-05-02T03:48:38;9.40;99.90
20891;DHT22;10605;52.968;8.844;2023-05-02T03:51:05;9.30;99.90
20891;DHT22;10605;52.968;8.844;2023-05-02T03:53:32;9.30;99.90
20891;DHT22;10605;52.968;8.844;2023-05-02T03:55:58;9.20;99.90
20891;DHT22;10605;52.968;8.844;2023-05-02T03:58:24;9.10;99.90
20891;DHT22;10605;52.968;8.844;2023-05-02T04:00:50;9.00;99.90
20891;DHT22;10605;52.968;8.844;2023-05-02T04:03:18;9.00;99.90
20891;DHT22;10605;52.968;8.844;2023-05-02T04:05:44;9.00;99.90
20891;DHT22;10605;52.968;8.844;2023-05-02T04:08:10;9.00;99.90
20891;DHT22;10605;52.968;8.844;2023-05-02T04:10:35;8.90;99.90
20891;DHT22;10605;52.968;8.844;2023-05-02T04:13:02;9.00;99.90
20891;DHT22;10605;52.968;8.844;2023-05-02T04:15:28;9.10;99.90
20891;DHT22;10605;52.968;8.844;2023-05-02T04:17:55;9.00;99.90
20891;DHT22;10605;52.968;8.844;2023-05-02T04:20:21;8.90;99.90
20891;DHT22;10605;52.968;8.844;2023-05-02T04:22:47;9.00;99.90
20891;DHT22;10605;52.968;8.844;2023-05-02T04:25:14;9.00;99.90
20891;DHT22;10605;52.968;8.844;2023-05-02T04:27:40;9.10;99.90
20891;DHT22;10605;52.968;8.844;2023-05-02T04:30:06;9.00;99.90
20891;DHT22;10605;52.968;8.844;2023-05-02T04:32:32;9.00;99.90
20891;DHT22;10605;52.968;8.844;2023-05-02T04:34:58;8.90;99.90
20891;DHT22;10605;52.968;8.844;2023-05-02T04:37:24;8.80;99.90
20891;DHT22;10605;52.968;8.844;2023-05-02T04:39:50;8.80;99.90
20891;DHT22;10605;52.968;8.844;2023-05-02T04:42:16;8.80;99.90
20891;DHT22;10605;52.968;8.844;2023-05-02T04:44:41;8.90;99.90
20891;DHT22;10605;52.968;8.844;2023-05-02T04:47:07;9.10;99.90
20891;DHT22;10605;52.968;8.844;2023-05-02T04:49:33;9.20;99.90
20891;DHT22;10605;52.968;8.844;2023-05-02T04:51:58;9.30;99.90
20891;DHT22;10605;52.968;8.844;2023-05-02T04:54:24;9.20;99.90
20891;DHT22;10605;52.968;8.844;2023-05-02T04:56:50;9.20;99.90
20891;DHT22;10605;52.968;8.844;2023-05-02T04:59:15;9.20;99.90
20891;DHT22;10605;52.968;8.844;2023-05-02T05:01:44;9.30;99.90
20891;DHT22;10605;52.968;8.844;2023-05-02T05:04:09;9.30;99.90
20891;DHT22;10605;52.968;8.844;2023-05-02T05:06:35;9.30;99.90
20891;DHT22;10605;52.968;8.844;2023-05-02T05:09:01;9.30;99.90
20891;DHT22;10605;52.968;8.844;2023-05-02T05:11:28;9.30;99.90
20891;DHT22;10605;52.968;8.844;2023-05-02T05:13:53;9.20;99.90
20891;DHT22;10605;52.968;8.844;2023-05-02T05:16:19;9.10;99.90
20891;DHT22;10605;52.968;8.844;2023-05-02T05:18:45;9.20;99.90
20891;DHT22;10605;52.968;8.844;2023-05-02T05:21:11;9.40;99.90
20891;DHT22;10605;52.968;8.844;2023-05-02T05:23:37;9.40;99.90
20891;DHT22;10605;52.968;8.844;2023-05-02T05:26:09;9.20;99.90
20891;DHT22;10605;52.968;8.844;2023-05-02T05:28:35;9.20;99.90
20891;DHT22;10605;52.968;8.844;2023-05-02T05:31:08;9.10;99.90
20891;DHT22;10605;52.968;8.844;2023-05-02T05:33:34;9.20;99.90
20891;DHT22;10605;52.968;8.844;2023-05-02T05:36:13;9.10;99.90
20891;DHT22;10605;52.968;8.844;2023-05-02T05:38:41;9.00;99.90
20891;DHT22;10605;52.968;8.844;2023-05-02T05:41:07;8.90;99.90
20891;DHT22;10605;52.968;8.844;2023-05-02T05:43:33;9.00;99.90
20891;DHT22;10605;52.968;8.844;2023-05-02T05:45:59;9.00;99.90
20891;DHT22;10605;52.968;8.844;2023-05-02T05:48:25;9.10;99.90
20891;DHT22;10605;52.968;8.844;2023-05-02T05:50:51;9.30;99.90
20891;DHT22;10605;52.968;8.844;2023-05-02T05:53:17;9.30;99.90
20891;DHT22;10605;52.968;8.844;2023-05-02T05:55:43;9.30;99.90
20891;DHT22;10605;52.968;8.844;2023-05-02T05:58:09;9.60;99.90
20891;DHT22;10605;52.968;8.844;2023-05-02T06:00:36;9.70;99.90
20891;DHT22;10605;52.968;8.844;2023-05-02T06:03:02;10.00;99.90
20891;DHT22;10605;52.968;8.844;2023-05-02T06:05:31;10.10;99.90
20891;DHT22;10605;52.968;8.844;2023-05-02T06:07:57;10.20;99.90
20891;DHT22;10605;52.968;8.844;2023-05-02T06:10:23;10.60;99.90
20891;DHT22;10605;52.968;8.844;2023-05-02T06:12:48;10.70;99.90
20891;DHT22;10605;52.968;8.844;2023-05-02T06:15:14;10.40;99.90
20891;DHT22;10605;52.968;8.844;2023-05-02T06:17:40;10.30;99.90
20891;DHT22;10605;52.968;8.844;2023-05-02T06:20:06;10.10;99.90
20891;DHT22;10605;52.968;8.844;2023-05-02T06:22:32;9.90;99.90
20891;DHT22;10605;52.968;8.844;2023-05-02T06:24:58;9.90;99.90
20891;DHT22;10605;52.968;8.844;2023-05-02T06:27:24;10.00;99.90
20891;DHT22;10605;52.968;8.844;2023-05-02T06:29:50;9.70;99.90
20891;DHT22;10605;52.968;8.844;2023-05-02T06:32:17;9.70;99.90
20891;DHT22;10605;52.968;8.844;2023-05-02T06:34:43;9.70;99.90
20891;DHT22;10605;52.968;8.844;2023-05-02T06:37:08;9.50;99.90
20891;DHT22;10605;52.968;8.844;2023-05-02T06:39:34;9.50;99.90
20891;DHT22;10605;52.968;8.844;2023-05-02T06:42:00;9.40;99.90
20891;DHT22;10605;52.968;8.844;2023-05-02T06:44:25;9.30;99.90
20891;DHT22;10605;52.968;8.844;2023-05-02T06:46:51;9.30;99.90
20891;DHT22;10605;52.968;8.844;2023-05-02T06:49:17;9.40;99.90
20891;DHT22;10605;52.968;8.844;2023-05-02T06:51:42;9.20;99.90
20891;DHT22;10605;52.968;8.844;2023-05-02T06:54:08;9.10;99.90
20891;DHT22;10605;52.968;8.844;2023-05-02T06:56:34;9.20;99.90
20891;DHT22;10605;52.968;8.844;2023-05-02T06:59:01;9.30;99.90
20891;DHT22;10605;52.968;8.844;2023-05-02T07:01:26;9.30;99.90
20891;DHT22;10605;52.968;8.844;2023-05-02T07:03:52;9.10;99.90
20891;DHT22;10605;52.968;8.844;2023-05-02T07:06:18;9.10;99.90
20891;DHT22;10605;52.968;8.844;2023-05-02T07:08:44;9.20;99.90
20891;DHT22;10605;52.968;8.844;2023-05-02T07:11:10;9.30;99.90
20891;DHT22;10605;52.968;8.844;2023-05-02T07:13:36;9.30;99.90
20891;DHT22;10605;52.968;8.844;2023-05-02T07:16:01;9.40;99.90
20891;DHT22;10605;52.968;8.844;2023-05-02T07:18:27;9.50;99.90
20891;DHT22;10605;52.968;8.844;2023-05-02T07:20:52;9.80;99.90
20891;DHT22;10605;52.968;8.844;2023-05-02T07:23:19;10.00;99.90
20891;DHT22;10605;52.968;8.844;2023-05-02T07:25:46;9.90;99.90
20891;DHT22;10605;52.968;8.844;2023-05-02T07:28:12;10.10;99.90
20891;DHT22;10605;52.968;8.844;2023-05-02T07:30:38;10.20;99.90
20891;DHT22;10605;52.968;8.844;2023-05-02T07:33:03;10.50;99.90
20891;DHT22;10605;52.968;8.844;2023-05-02T07:35:29;10.70;99.90
20891;DHT22;10605;52.968;8.844;2023-05-02T07:37:55;11.00;99.90
20891;DHT22;10605;52.968;8.844;2023-05-02T07:40:21;10.70;99.90
20891;DHT22;10605;52.968;8.844;2023-05-02T07:42:47;10.30;99.90
20891;DHT22;10605;52.968;8.844;2023-05-02T07:45:13;10.20;99.90
20891;DHT22;10605;52.968;8.844;2023-05-02T07:47:39;10.20;99.90
20891;DHT22;10605;52.968;8.844;2023-05-02T07:50:05;10.00;99.90
20891;DHT22;10605;52.968;8.844;2023-05-02T07:52:31;10.10;99.90
20891;DHT22;10605;52.968;8.844;2023-05-02T07:54:56;10.00;99.90
20891;DHT22;10605;52.968;8.844;2023-05-02T07:57:22;10.40;99.90
20891;DHT22;10605;52.968;8.844;2023-05-02T07:59:48;10.50;99.90
20891;DHT22;10605;52.968;8.844;2023-05-02T08:02:14;10.20;99.90
20891;DHT22;10605;52.968;8.844;2023-05-02T08:04:42;10.20;99.90
20891;DHT22;10605;52.968;8.844;2023-05-02T08:07:07;10.20;99.90
20891;DHT22;10605;52.968;8.844;2023-05-02T08:09:33;10.20;99.90
20891;DHT22;10605;52.968;8.844;2023-05-02T08:11:59;10.30;99.90
20891;DHT22;10605;52.968;8.844;2023-05-02T08:14:26;10.40;99.90
20891;DHT22;10605;52.968;8.844;2023-05-02T08:16:52;10.40;99.90
20891;DHT22;10605;52.968;8.844;2023-05-02T08:19:18;10.40;99.90
20891;DHT22;10605;52.968;8.844;2023-05-02T08:21:43;10.50;99.90
20891;DHT22;10605;52.968;8.844;2023-05-02T08:24:09;10.40;99.90
20891;DHT22;10605;52.968;8.844;2023-05-02T08:26:35;10.60;99.90
20891;DHT22;10605;52.968;8.844;2023-05-02T08:29:00;11.00;99.90
20891;DHT22;10605;52.968;8.844;2023-05-02T08:31:27;11.10;99.90
20891;DHT22;10605;52.968;8.844;2023-05-02T08:33:53;11.20;99.90
20891;DHT22;10605;52.968;8.844;2023-05-02T08:36:18;11.70;99.90
20891;DHT22;10605;52.968;8.844;2023-05-02T08:38:45;12.10;99.90
20891;DHT22;10605;52.968;8.844;2023-05-02T08:41:16;12.10;99.90
20891;DHT22;10605;52.968;8.844;2023-05-02T08:43:43;11.70;99.90
20891;DHT22;10605;52.968;8.844;2023-05-02T08:46:13;11.70;99.90
20891;DHT22;10605;52.968;8.844;2023-05-02T08:48:41;12.00;99.90
20891;DHT22;10605;52.968;8.844;2023-05-02T08:51:09;11.70;99.90
20891;DHT22;10605;52.968;8.844;2023-05-02T08:53:37;11.40;99.90
20891;DHT22;10605;52.968;8.844;2023-05-02T08:56:03;11.10;99.90
20891;DHT22;10605;52.968;8.844;2023-05-02T08:58:29;11.40;99.90
20891;DHT22;10605;52.968;8.844;2023-05-02T09:01:05;11.70;99.90
20891;DHT22;10605;52.968;8.844;2023-05-02T09:03:34;12.00;99.90
20891;DHT22;10605;52.968;8.844;2023-05-02T09:06:12;12.40;99.90
20891;DHT22;10605;52.968;8.844;2023-05-02T09:08:38;12.60;99.90
20891;DHT22;10605;52.968;8.844;2023-05-02T09:11:05;13.30;99.90
20891;DHT22;10605;52.968;8.844;2023-05-02T09:13:47;14.30;99.90
20891;DHT22;10605;52.968;8.844;2023-05-02T09:21:07;13.90;97.20
20891;DHT22;10605;52.968;8.844;2023-05-02T09:26:17;12.60;99.60
20891;DHT22;10605;52.968;8.844;2023-05-02T09:28:48;12.20;99.90
20891;DHT22;10605;52.968;8.844;2023-05-02T09:31:18;12.20;99.90
20891;DHT22;10605;52.968;8.844;2023-05-02T09:33:45;12.00;99.90
20891;DHT22;10605;52.968;8.844;2023-05-02T09:36:13;11.60;99.90
20891;DHT22;10605;52.968;8.844;2023-05-02T09:38:40;11.50;99.90
20891;DHT22;10605;52.968;8.844;2023-05-02T09:41:05;11.20;99.90
20891;DHT22;10605;52.968;8.844;2023-05-02T09:43:31;11.90;99.90
20891;DHT22;10605;52.968;8.844;2023-05-02T09:46:02;11.70;99.90
20891;DHT22;10605;52.968;8.844;2023-05-02T09:48:29;12.00;99.90
20891;DHT22;10605;52.968;8.844;2023-05-02T09:50:55;12.10;99.90
20891;DHT22;10605;52.968;8.844;2023-05-02T09:53:23;12.50;99.90
20891;DHT22;10605;52.968;8.844;2023-05-02T09:56:01;12.80;99.50
20891;DHT22;10605;52.968;8.844;2023-05-02T09:58:27;13.30;99.80
20891;DHT22;10605;52.968;8.844;2023-05-02T10:00:56;14.40;97.80
20891;DHT22;10605;52.968;8.844;2023-05-02T10:03:23;15.10;95.90
20891;DHT22;10605;52.968;8.844;2023-05-02T10:05:49;17.40;92.30
20891;DHT22;10605;52.968;8.844;2023-05-02T10:08:17;17.40;84.80
20891;DHT22;10605;52.968;8.844;2023-05-02T10:11:04;18.00;76.20
20891;DHT22;10605;52.968;8.844;2023-05-02T10:13:32;21.40;62.10
20891;DHT22;10605;52.968;8.844;2023-05-02T10:16:03;19.80;57.70
20891;DHT22;10605;52.968;8.844;2023-05-02T10:18:51;18.30;57.30
20891;DHT22;10605;52.968;8.844;2023-05-02T10:21:25;16.90;61.00
20891;DHT22;10605;52.968;8.844;2023-05-02T10:23:54;15.80;64.30
20891;DHT22;10605;52.968;8.844;2023-05-02T10:26:22;15.20;70.30
20891;DHT22;10605;52.968;8.844;2023-05-02T10:28:48;14.80;73.20
20891;DHT22;10605;52.968;8.844;2023-05-02T10:31:17;14.90;77.50
20891;DHT22;10605;52.968;8.844;2023-05-02T10:33:43;14.70;76.70
20891;DHT22;10605;52.968;8.844;2023-05-02T10:36:11;14.40;78.00
20891;DHT22;10605;52.968;8.844;2023-05-02T10:38:40;13.70;79.60
20891;DHT22;10605;52.968;8.844;2023-05-02T10:41:12;13.70;81.10
20891;DHT22;10605;52.968;8.844;2023-05-02T10:43:44;14.00;82.20
20891;DHT22;10605;52.968;8.844;2023-05-02T10:46:31;13.90;83.00
20891;DHT22;10605;52.968;8.844;2023-05-02T10:49:02;14.10;82.10
20891;DHT22;10605;52.968;8.844;2023-05-02T10:51:28;14.50;82.40
20891;DHT22;10605;52.968;8.844;2023-05-02T10:57:00;15.60;78.40
20891;DHT22;10605;52.968;8.844;2023-05-02T11:02:00;15.90;74.30
20891;DHT22;10605;52.968;8.844;2023-05-02T11:07:24;14.50;79.10
20891;DHT22;10605;52.968;8.844;2023-05-02T11:09:50;14.10;83.30
20891;DHT22;10605;52.968;8.844;2023-05-02T11:15:10;14.10;85.00
20891;DHT22;10605;52.968;8.844;2023-05-02T11:18:03;14.50;85.00
20891;DHT22;10605;52.968;8.844;2023-05-02T11:20:34;14.30;86.50
20891;DHT22;10605;52.968;8.844;2023-05-02T11:23:21;14.50;86.50
20891;DHT22;10605;52.968;8.844;2023-05-02T11:25:54;14.90;85.50
20891;DHT22;10605;52.968;8.844;2023-05-02T11:31:03;15.80;81.50
20891;DHT22;10605;52.968;8.844;2023-05-02T11:33:29;15.20;81.90
20891;DHT22;10605;52.968;8.844;2023-05-02T11:35:55;15.20;83.00
20891;DHT22;10605;52.968;8.844;2023-05-02T11:38:25;14.90;84.10
20891;DHT22;10605;52.968;8.844;2023-05-02T11:40:58;15.00;85.30
20891;DHT22;10605;52.968;8.844;2023-05-02T11:43:26;14.80;84.40
20891;DHT22;10605;52.968;8.844;2023-05-02T11:45:53;14.40;86.80
20891;DHT22;10605;52.968;8.844;2023-05-02T11:48:21;14.10;88.40
20891;DHT22;10605;52.968;8.844;2023-05-02T11:50:51;14.00;89.10
20891;DHT22;10605;52.968;8.844;2023-05-02T11:53:22;13.90;90.80
20891;DHT22;10605;52.968;8.844;2023-05-02T11:56:08;14.00;90.30
20891;DHT22;10605;52.968;8.844;2023-05-02T11:58:34;14.20;90.40
20891;DHT22;10605;52.968;8.844;2023-05-02T12:01:12;13.70;91.70
20891;DHT22;10605;52.968;8.844;2023-05-02T12:03:38;13.00;92.90
20891;DHT22;10605;52.968;8.844;2023-05-02T12:06:10;13.00;94.20
20891;DHT22;10605;52.968;8.844;2023-05-02T12:08:37;13.40;93.80
20891;DHT22;10605;52.968;8.844;2023-05-02T12:11:02;13.70;92.70
20891;DHT22;10605;52.968;8.844;2023-05-02T12:13:28;14.30;92.10
20891;DHT22;10605;52.968;8.844;2023-05-02T12:15:54;15.00;90.20
20891;DHT22;10605;52.968;8.844;2023-05-02T12:18:21;15.00;88.00
20891;DHT22;10605;52.968;8.844;2023-05-02T12:20:49;14.00;87.90
20891;DHT22;10605;52.968;8.844;2023-05-02T12:23:16;14.10;89.80
20891;DHT22;10605;52.968;8.844;2023-05-02T12:25:42;14.20;88.40
20891;DHT22;10605;52.968;8.844;2023-05-02T12:28:09;14.30;88.40
20891;DHT22;10605;52.968;8.844;2023-05-02T12:30:35;15.40;87.40
20891;DHT22;10605;52.968;8.844;2023-05-02T12:33:03;15.70;86.30
20891;DHT22;10605;52.968;8.844;2023-05-02T12:35:31;16.40;83.20
20891;DHT22;10605;52.968;8.844;2023-05-02T12:38:16;16.80;80.80
20891;DHT22;10605;52.968;8.844;2023-05-02T12:40:46;16.80;78.60
20891;DHT22;10605;52.968;8.844;2023-05-02T12:43:13;17.40;77.40
20891;DHT22;10605;52.968;8.844;2023-05-02T12:45:38;17.20;75.40
20891;DHT22;10605;52.968;8.844;2023-05-02T12:48:18;17.20;77.30
20891;DHT22;10605;52.968;8.844;2023-05-02T12:50:44;17.40;78.60
20891;DHT22;10605;52.968;8.844;2023-05-02T12:53:09;16.10;78.80
20891;DHT22;10605;52.968;8.844;2023-05-02T12:55:35;15.80;81.60
20891;DHT22;10605;52.968;8.844;2023-05-02T12:58:05;16.50;78.60
20891;DHT22;10605;52.968;8.844;2023-05-02T13:00:33;17.10;74.30
20891;DHT22;10605;52.968;8.844;2023-05-02T13:02:59;17.00;73.70
20891;DHT22;10605;52.968;8.844;2023-05-02T13:05:25;16.10;76.30
20891;DHT22;10605;52.968;8.844;2023-05-02T13:07:51;15.60;79.00
20891;DHT22;10605;52.968;8.844;2023-05-02T13:10:17;14.30;86.40
20891;DHT22;10605;52.968;8.844;2023-05-02T13:12:44;13.80;88.00
20891;DHT22;10605;52.968;8.844;2023-05-02T13:15:11;13.90;89.90
20891;DHT22;10605;52.968;8.844;2023-05-02T13:17:37;14.10;88.60
20891;DHT22;10605;52.968;8.844;2023-05-02T13:20:03;14.40;87.00
20891;DHT22;10605;52.968;8.844;2023-05-02T13:22:29;14.80;84.80
20891;DHT22;10605;52.968;8.844;2023-05-02T13:24:55;14.80;80.90
20891;DHT22;10605;52.968;8.844;2023-05-02T13:27:23;15.20;80.20
20891;DHT22;10605;52.968;8.844;2023-05-02T13:29:49;15.20;81.10
20891;DHT22;10605;52.968;8.844;2023-05-02T13:32:15;15.40;80.50
20891;DHT22;10605;52.968;8.844;2023-05-02T13:34:41;15.10;80.60
20891;DHT22;10605;52.968;8.844;2023-05-02T13:37:07;15.30;80.90
20891;DHT22;10605;52.968;8.844;2023-05-02T13:39:33;16.10;78.00
20891;DHT22;10605;52.968;8.844;2023-05-02T13:41:58;16.10;79.60
20891;DHT22;10605;52.968;8.844;2023-05-02T13:44:24;16.20;77.80
20891;DHT22;10605;52.968;8.844;2023-05-02T13:46:50;15.90;79.40
20891;DHT22;10605;52.968;8.844;2023-05-02T13:49:15;15.50;81.70
20891;DHT22;10605;52.968;8.844;2023-05-02T13:51:41;15.30;83.10
20891;DHT22;10605;52.968;8.844;2023-05-02T13:54:07;15.20;85.00
20891;DHT22;10605;52.968;8.844;2023-05-02T13:56:32;14.90;86.90
20891;DHT22;10605;52.968;8.844;2023-05-02T13:58:58;14.50;87.90
20891;DHT22;10605;52.968;8.844;2023-05-02T14:01:23;14.60;88.00
20891;DHT22;10605;52.968;8.844;2023-05-02T14:03:52;14.50;88.60
20891;DHT22;10605;52.968;8.844;2023-05-02T14:06:18;14.70;88.20
20891;DHT22;10605;52.968;8.844;2023-05-02T14:08:44;14.40;88.30
20891;DHT22;10605;52.968;8.844;2023-05-02T14:11:10;14.30;89.60
20891;DHT22;10605;52.968;8.844;2023-05-02T14:13:36;14.30;90.10
20891;DHT22;10605;52.968;8.844;2023-05-02T14:16:02;14.30;89.30
20891;DHT22;10605;52.968;8.844;2023-05-02T14:18:28;14.90;90.20
20891;DHT22;10605;52.968;8.844;2023-05-02T14:20:53;15.30;87.40
20891;DHT22;10605;52.968;8.844;2023-05-02T14:23:22;15.90;86.10
20891;DHT22;10605;52.968;8.844;2023-05-02T14:25:47;15.00;83.70
20891;DHT22;10605;52.968;8.844;2023-05-02T14:28:13;14.80;84.90
20891;DHT22;10605;52.968;8.844;2023-05-02T14:30:39;14.20;86.90
20891;DHT22;10605;52.968;8.844;2023-05-02T14:33:05;14.00;89.10
20891;DHT22;10605;52.968;8.844;2023-05-02T14:35:30;13.60;91.00
20891;DHT22;10605;52.968;8.844;2023-05-02T14:37:56;13.40;91.90
20891;DHT22;10605;52.968;8.844;2023-05-02T14:40:21;13.10;93.20
20891;DHT22;10605;52.968;8.844;2023-05-02T14:42:47;13.00;93.60
20891;DHT22;10605;52.968;8.844;2023-05-02T14:45:13;12.60;94.40
20891;DHT22;10605;52.968;8.844;2023-05-02T14:47:38;12.60;95.00
20891;DHT22;10605;52.968;8.844;2023-05-02T14:50:05;12.80;95.20
20891;DHT22;10605;52.968;8.844;2023-05-02T14:52:30;13.20;94.70
20891;DHT22;10605;52.968;8.844;2023-05-02T14:55:00;13.60;94.00
20891;DHT22;10605;52.968;8.844;2023-05-02T14:57:26;13.90;92.70
20891;DHT22;10605;52.968;8.844;2023-05-02T14:59:52;13.80;91.70
20891;DHT22;10605;52.968;8.844;2023-05-02T15:02:18;13.80;92.20
20891;DHT22;10605;52.968;8.844;2023-05-02T15:04:43;14.30;93.00
20891;DHT22;10605;52.968;8.844;2023-05-02T15:07:09;14.40;91.00
20891;DHT22;10605;52.968;8.844;2023-05-02T15:09:35;14.10;91.60
20891;DHT22;10605;52.968;8.844;2023-05-02T15:12:01;14.30;91.20
20891;DHT22;10605;52.968;8.844;2023-05-02T15:14:27;14.20;91.40
20891;DHT22;10605;52.968;8.844;2023-05-02T15:16:53;14.30;91.90
20891;DHT22;10605;52.968;8.844;2023-05-02T15:19:19;14.20;91.30
20891;DHT22;10605;52.968;8.844;2023-05-02T15:21:47;13.80;91.10
20891;DHT22;10605;52.968;8.844;2023-05-02T15:24:14;13.60;91.80
20891;DHT22;10605;52.968;8.844;2023-05-02T15:26:40;13.50;91.50
20891;DHT22;10605;52.968;8.844;2023-05-02T15:29:06;13.60;91.50
20891;DHT22;10605;52.968;8.844;2023-05-02T15:31:32;13.60;92.00
20891;DHT22;10605;52.968;8.844;2023-05-02T15:33:58;13.40;92.10
20891;DHT22;10605;52.968;8.844;2023-05-02T15:36:29;13.20;92.60
20891;DHT22;10605;52.968;8.844;2023-05-02T15:38:57;12.90;92.90
20891;DHT22;10605;52.968;8.844;2023-05-02T15:41:24;12.80;93.00
20891;DHT22;10605;52.968;8.844;2023-05-02T15:43:51;12.60;93.70
20891;DHT22;10605;52.968;8.844;2023-05-02T15:46:17;12.30;94.10
20891;DHT22;10605;52.968;8.844;2023-05-02T15:48:43;12.50;94.70
20891;DHT22;10605;52.968;8.844;2023-05-02T15:51:09;12.40;95.50
20891;DHT22;10605;52.968;8.844;2023-05-02T15:53:35;12.40;95.40
20891;DHT22;10605;52.968;8.844;2023-05-02T15:56:07;12.50;95.20
20891;DHT22;10605;52.968;8.844;2023-05-02T15:58:33;12.70;95.30
20891;DHT22;10605;52.968;8.844;2023-05-02T16:00:59;12.80;95.30
20891;DHT22;10605;52.968;8.844;2023-05-02T16:03:25;12.90;95.00
20891;DHT22;10605;52.968;8.844;2023-05-02T16:05:53;12.80;94.80
20891;DHT22;10605;52.968;8.844;2023-05-02T16:08:19;12.90;95.20
20891;DHT22;10605;52.968;8.844;2023-05-02T16:10:45;13.10;95.10
20891;DHT22;10605;52.968;8.844;2023-05-02T16:13:11;12.90;94.30
20891;DHT22;10605;52.968;8.844;2023-05-02T16:15:37;13.10;94.40
20891;DHT22;10605;52.968;8.844;2023-05-02T16:18:03;12.90;94.40
20891;DHT22;10605;52.968;8.844;2023-05-02T16:20:29;13.00;94.80
20891;DHT22;10605;52.968;8.844;2023-05-02T16:22:57;13.00;94.50